Impacts METAR Board
IDs:

KFMY - Fort Myers/Page Fld, FL, US

Updated at: 2200 UTC 30 Jun 2022
Potential Impact None Slight Moderate High
Time 30/10Z 30/11Z 30/12Z 30/13Z 30/14Z 30/15Z 30/16Z 30/17Z 30/18Z 30/19Z 30/20Z 30/21Z 30/22Z
Temp78 77 80 82 86 88 89 90 94 90 93 80 76
Dewpt73 73 73 73 73 72 72 72 71 72 72 69 72
Altim30.09 30.09 30.10 30.12 30.12 30.12 30.12 30.10 30.08 30.06 30.03 30.04 30.10
VIS10 10 10 10 10 10 10 10 10 10 10 3 0.75
CIG-- -- -- -- -- -- 39 -- -- 50 -- 46 35
CoverCLRCLRCLRCLRCLRFEWBKNSCTFEWOVCFEWOVCOVC
FltCatVFRVFRVFRVFRVFRVFRVFRVFRVFRVFRVFRMVFRLIFR
WX----------------------TSRA+TSRA BR
WDir800100000330050320270190
WSpd3 0 3 0 0 0 3 0 4 5 10 5
WGst-- -- -- -- -- -- -- -- -- -- -- 30 --
Raw hourly METARs
KFMY 300953Z AUTO 08003KT 10SM CLR 26/23 A3009 RMK AO2 SLP190 T02560228
KFMY 301053Z 00000KT 10SM CLR 25/23 A3009 RMK AO2 SLP193 T02500228
KFMY 301153Z 10003KT 10SM CLR 27/23 A3010 RMK AO2 SLP196 T02670228 10272 20250 53003
KFMY 301253Z 00000KT 10SM CLR 28/23 A3012 RMK AO2 SLP201 T02780228
KFMY 301353Z 00000KT 10SM CLR 30/23 A3012 RMK AO2 SLP202 T03000228
KFMY 301453Z 00000KT 10SM FEW032 31/22 A3012 RMK AO2 SLP202 T03110222 51006
KFMY 301553Z 33003KT 10SM BKN039 BKN047 32/22 A3012 RMK AO2 SLP201 T03170222
KFMY 301653Z 00000KT 10SM FEW042 FEW050 SCT060 32/22 A3010 RMK AO2 SLP195 T03220222
KFMY 301753Z 05004KT 10SM FEW085 34/22 A3008 RMK AO2 SLP188 T03440217 10344 20267 58014
KFMY 301853Z 10SM OVC050 32/22 A3006 RMK AO2 SLP181 T03220222
KFMY 301953Z AUTO 32005KT 10SM FEW070 34/22 A3003 RMK AO2 LTG DSNT SE AND S SLP171 T03390222
KFMY 302102Z AUTO 27010G30KT 3SM TSRA SCT037 BKN046 OVC100 27/21 A3004 RMK AO2 PK WND 27030/2059 LTG DSNT ALQDS P0003 T02670206
KFMY 302202Z AUTO 19005KT 3/4SM +TSRA BR BKN035 OVC045 24/22 A3010 RMK AO2 LTG DSNT NW-NE P0023 T02440222



Page loaded:  22:08 UTC  |   03:08 PM Pacific  |   04:08 PM Mountain  |   05:08 PM Central  |   06:08 PM Eastern

 

ADVISORIES

FORECASTS

FORECASTS

OBSERVATIONS

USER TOOLS

ABOUT US